Mesquite, Nevada Weather observations

Data are for observation ending at time listed.
 Day   Time    Ave.   Ave.  Ave.  Vector   Max.   Stn.    Total    Solar   Ave.  
  of    of     Air    Rel.  Wind   Wind    Wind   Baro.  Precip.   Rad.    Soil  
Year   Day     Temp.  Hum.  Speed  Dir.    Gust   Pres.                    Temp. 
2016   (PST)    F      %     mph   deg.    mph     mb.     in.     W/m2     F   
------------------------------------------------------------------------------
 339    3:30   34.8    47    4.0    73      4.8   957.5    0.00       0    51.9
 339    3:40   33.5    52    5.0    83      6.4   957.4    0.00       0    51.8
 339    3:50   33.4    52    4.5    77      5.6   957.3    0.00       0    51.7
 339    4:00   33.5    52    3.5    83      4.1   957.3    0.00       0    51.6
 339    4:10   33.4    53    4.2    87      5.7   957.3    0.00       0    51.5
 339    4:20   32.6    55    5.6    84      6.6   957.2    0.00       0    51.5
 339    4:30   32.5    55    5.3    77      6.6   957.1    0.00       0    51.4
 339    4:40   32.4    56    4.7    63      5.8   957.1    0.00       0    51.3
 339    4:50   32.8    53    4.4    47      5.5   957.0    0.00       0    51.2
 339    5:00   34.0    50    3.6    14      4.4   957.2    0.00       0    51.2
 339    5:10   35.1    47    3.5    27      4.5   957.1    0.00       0    51.1
 339    5:20   35.8    46    3.1    56      3.7   957.1    0.00       0    51.0
 339    5:30   34.7    49    3.1   100      4.1   957.1    0.00       0    50.9
 339    5:40   32.8    54    3.3    94      4.2   957.1    0.00       0    50.8
 339    5:50   32.8    55    3.7    91      4.7   957.2    0.00       0    50.8
 339    6:00   33.0    54    2.7    78      4.2   957.2    0.00       0    50.7
 339    6:10   33.2    54    2.6    53      3.5   957.3    0.00       0    50.7
 339    6:20   33.8    52    1.0    85      2.2   957.3    0.00       0    50.6
 339    6:30   34.7    50    0.8   345      1.8   957.4    0.00       1    50.5
 339    6:40   34.8    50    1.3   164      2.4   957.5    0.00       3    50.5
 339    6:50   34.1    52    2.1   122      4.7   957.6    0.00       5    50.4
 339    7:00   32.3    56    2.9    85      4.4   957.7    0.00       8    50.4
 339    7:10   31.5    58    2.8    63      3.8   957.7    0.00      17    50.3
 339    7:20   34.0    54    3.6    55      4.7   957.5    0.00      75    50.2
 339    7:30   37.0    47    2.6    52      4.2   957.4    0.00      99    50.1
 339    7:40   39.0    43    1.1     5      2.4   957.3    0.00     122    50.1
 339    7:50   40.8    40    0.2   276      1.2   957.2    0.00     144    50.0
 339    8:00   41.1    39    1.4   300      2.9   957.2    0.00     167    50.0
 339    8:10   40.6    41    1.0   304      2.7   957.3    0.00     189    50.1
 339    8:20   43.7    36    0.3   137      2.6   957.6    0.00     210    50.2
 339    8:30   44.2    39    2.9   148      3.7   957.9    0.00     231    50.3
 339    8:40   43.1    40    3.3   152      4.6   958.0    0.00     251    50.4
 339    8:50   44.0    37    2.5   166      4.3   958.2    0.00     271    50.6
 339    9:00   46.7    33    2.3   152      4.7   958.3    0.00     289    50.7
 339    9:10   47.9    31    3.1   125      5.2   958.2    0.00     307    50.9
 339    9:20   48.5    30    2.8   113      4.6   958.1    0.00     323    51.1
 339    9:30   49.7    28    1.8    89      3.0   957.9    0.00     338    51.3
 339    9:40   50.8    27    1.1    50      2.5   957.8    0.00     350    51.5
 339    9:50   51.8    26    0.8   260      1.9   957.7    0.00     362    51.8
 339   10:00   51.5    27    2.4   264      4.5   957.6    0.00     374    52.1
 339   10:10   51.6    27    2.6   241      4.9   957.4    0.00     385    52.3
 339   10:20   52.4    26    2.4   258      4.2   957.4    0.00     395    52.5
 339   10:30   53.5    26    1.7   211      3.8   957.2    0.00     403    52.8
 339   10:40   54.7    24    1.6   177      3.7   957.0    0.00     409    53.1
 339   10:50   55.4    23    1.5   240      2.9   956.7    0.00     412    53.4
 339   11:00   55.8    22    1.3   200      2.6   956.3    0.00     417    53.7
 339   11:10   57.1    22    1.5   206      3.7   956.1    0.00     417    54.0
 339   11:20   57.4    21    1.4   221      3.4   955.9    0.00     420    54.4
 339   11:30   57.9    20    1.1   175      3.9   955.8    0.00     422    54.8
 339   11:40   57.0    20    2.4    66      4.3   955.6    0.00     422    55.2
 339   11:50   56.4    20    2.2   144      5.1   955.5    0.00     421    55.6
 339   12:00   56.5    20    3.4   123      5.8   955.3    0.00     419    56.0
 339   12:10   57.0    19    3.1   134      6.5   955.0    0.00     414    56.4
 339   12:20   57.5    19    1.8   175      5.8   954.8    0.00     414    56.8
 339   12:30   57.7    19    2.5   170      5.5   954.4    0.00     392    57.1
 339   12:40   57.9    18    1.7   139      5.2   953.8    0.00     382    57.5
 339   12:50   57.9    18    1.1   173      3.3   953.6    0.00     357    57.9
 339   13:00   58.1    18    2.1   243      4.5   953.5    0.00     348    58.2
 339   13:10   58.4    18    0.9   258      3.8   953.4    0.00     365    58.5
 339   13:20   59.1    17    1.3   227      3.9   953.3    0.00     329    58.8
 339   13:30   58.5    18    2.7   250      4.3   953.2    0.00     301    59.0
 339   13:40   58.5    18    1.4   256      4.4   953.0    0.00     317    59.3
 339   13:50   59.8    17    2.7   150      6.1   952.8    0.00     309    59.5
 339   14:00   60.4    16    2.3   177      4.8   952.6    0.00     293    59.7
 339   14:10   60.6    16    1.9   213      5.7   952.4    0.00     235    59.9
 339   14:20   59.7    17    1.6   237      3.9   952.3    0.00     205    60.0
 339   14:30   60.0    16    2.0   232      3.9   952.1    0.00     235    60.1
 339   14:40   59.8    16    1.5   262      3.3   952.0    0.00     220    60.2
 339   14:50   60.0    16    2.0   226      4.2   952.0    0.00     185    60.4
 339   15:00   59.7    15    1.8   232      4.2   951.9    0.00     164    60.4
 339   15:10   59.5    16    1.4   300      3.5   951.9    0.00     142    60.5
 339   15:20   59.9    16    0.4   306      2.5   951.7    0.00     126    60.6
 339   15:30   59.5    16    1.6   299      2.8   951.9    0.00     107    60.7
 339   15:40   59.5    16    0.4   273      2.6   951.7    0.00      78    60.7
 339   15:50   59.2    17    0.0     0      0.0   951.7    0.00      54    60.7
 339   16:00   58.9    17    0.1   141      1.2   951.7    0.00      39    60.6
 339   16:10   57.2    18    0.0   164      0.4   951.5    0.00      19    60.6
 339   16:20   56.2    19    0.7   184      2.4   951.5    0.00       9    60.4
 339   16:30   55.8    20    1.7   194      2.7   951.4    0.00       3    60.3
 339   16:40   55.1    20    1.5   154      3.5   951.2    0.00       1    60.2
 339   16:50   54.0    21    0.7   129      3.1   951.0    0.00       0    60.0
 339   17:00   53.3    22    0.6   331      2.1   951.2    0.00       0    59.9
 339   17:10   52.7    23    1.5   347      2.1   951.2    0.00       0    59.8
 339   17:20   52.5    22    1.2     5      2.6   951.2    0.00       0    59.6
 339   17:30   51.9    23    3.7   100      5.1   951.2    0.00       0    59.5
 339   17:40   48.5    28    4.5    74      6.9   951.1    0.00       0    59.3
 339   17:50   46.6    31    3.9    80      4.7   951.0    0.00       0    59.1
 339   18:00   45.9    34    2.9    67      4.2   950.9    0.00       0    59.0
 339   18:10   45.6    35    3.3    65      4.4   950.7    0.00       0    58.8
 339   18:20   45.6    35    2.3    44      3.0   950.7    0.00       0    58.7
 339   18:30   45.7    34    1.9    57      2.8   950.5    0.00       0    58.5
 339   18:40   46.4    34    2.9    70      3.7   950.6    0.00       0    58.4
 339   18:50   46.5    32    3.1   116      5.0   950.6    0.00       0    58.3
 339   19:00   45.4    34    1.2   111      3.0   950.6    0.00       0    58.1
 339   19:10   44.4    37    3.4   104      5.2   950.6    0.00       0    58.0
 339   19:20   43.7    38    1.8   103      3.1   950.4    0.00       0    57.8
 339   19:30   43.3    38    3.3    88      4.6   950.2    0.00       0    57.7
 339   19:40   43.0    38    3.4    54      4.6   950.3    0.00       0    57.5
 339   19:50   43.4    37    1.2    38      2.0   950.1    0.00       0    57.4
 339   20:00   44.1    35    0.3   255      1.4   950.0    0.00       0    57.3
 339   20:10   44.2    35    2.9   260      3.9   950.1    0.00       0    57.2
 339   20:20   44.2    36    3.1   177      4.5   950.0    0.00       0    57.0
 339   20:30   41.7    39    4.3   114      6.2   950.0    0.00       0    56.9
 339   20:40   41.1    38    1.8    72      2.6   950.0    0.00       0    56.8
 339   20:50   41.4    37    2.3    69      3.1   949.9    0.00       0    56.7
 339   21:00   41.5    37    2.3   352      3.1   949.9    0.00       0    56.5
 339   21:10   42.4    36    0.5    64      1.6   949.9    0.00       0    56.4
 339   21:20   42.2    37    0.5   169      2.3   949.9    0.00       0    56.3
 339   21:30   41.8    37    1.5   106      2.3   949.9    0.00       0    56.2
 339   21:40   41.4    38    1.4    98      3.4   949.9    0.00       0    56.1
 339   21:50   40.9    39    1.5   113      4.2   949.9    0.00       0    56.0
 339   22:00   39.7    44    4.5    98      7.2   949.8    0.00       0    55.9
 339   22:10   38.8    45    4.5    73      6.5   949.7    0.00       0    55.7
 339   22:20   38.6    44    3.4    51      3.9   949.7    0.00       0    55.6
 339   22:30   39.4    42    2.6    12      3.3   949.6    0.00       0    55.5
 339   22:40   40.7    38    1.1   356      2.3   949.5    0.00       0    55.4
 339   22:50   41.5    35    1.0   134      2.3   949.3    0.00       0    55.3
 339   23:00   40.4    39    1.2   131      3.3   949.2    0.00       0    55.2
 339   23:10   39.5    40    2.1   299      4.7   949.5    0.00       0    55.1
 339   23:20   40.0    40    0.7   269      2.0   949.5    0.00       0    55.0
 339   23:30   40.1    40    3.2   136      6.6   949.5    0.00       0    54.9
 339   23:40   37.0    49    4.5    95      6.4   949.3    0.00       0    54.8
 339   23:50   35.7    50    4.1    73      5.5   949.2    0.00       0    54.7
 340    0:00   35.9    48    4.0    72      5.2   949.1    0.00       0    54.6
 340    0:10   36.6    46    2.3    47      3.1   949.1    0.00       0    54.5
 340    0:20   37.2    45    2.2    16      3.6   949.0    0.00       0    54.4
 340    0:30   38.2    41    1.3    22      2.3   949.1    0.00       0    54.3
 340    0:40   38.8    40    1.8   147      5.6   949.1    0.00       0    54.2
 340    0:50   38.0    42    2.2   131      4.3   949.1    0.00       0    54.1
 340    1:00   36.5    49    3.2    80      4.9   949.3    0.00       0    54.0
 340    1:10   35.5    52    5.0    85      6.6   949.1    0.00       0    53.9
 340    1:20   34.4    54    5.1    74      6.2   949.0    0.00       0    53.8
 340    1:30   34.6    52    3.5    31      4.0   948.9    0.00       0    53.7
 340    1:40   36.0    47    4.1    25      4.9   948.6    0.00       0    53.6
 340    1:50   37.6    42    3.1    19      5.2   948.6    0.00       0    53.5
 340    2:00   38.7    40    1.5   298      2.9   948.6    0.00       0    53.4
 340    2:10   37.3    44    2.4   128      4.1   948.6    0.00       0    53.3
 340    2:20   35.7    50    3.0   122      5.3   948.6    0.00       0    53.2
 340    2:30   35.1    52    4.0   114      5.8   948.6    0.00       0    53.1
 340    2:40   34.2    55    4.2   101      5.4   948.3    0.00       0    53.0
 340    2:50   34.2    54    1.8    88      3.7   948.1    0.00       0    53.0
 340    3:00   35.1    51    0.4   166      1.9   947.9    0.00       0    52.9
 340    3:10   35.6    49    1.5   300      2.7   947.8    0.00       0    52.8
 340    3:20   36.0    48    3.1   302      5.7   947.7    0.00       0    52.7

Return to Mesquite, Nevada graphs page.


Western Regional Climate Center,wrcc@dri.edu